createdAt,value
2019-05-18T00:01:50.167Z,9.48
2019-05-18T00:04:18.209Z,15.20
2019-05-18T00:06:46.296Z,10.68
2019-05-18T00:09:14.301Z,9.78
2019-05-18T00:11:42.310Z,9.90
2019-05-18T00:14:10.435Z,11.15
2019-05-18T00:16:38.571Z,9.50
2019-05-18T00:19:06.597Z,10.75
2019-05-18T00:21:34.644Z,8.45
2019-05-18T00:24:21.364Z,8.90
2019-05-18T00:26:49.418Z,11.38
2019-05-18T00:29:17.454Z,9.60
2019-05-18T00:31:45.478Z,10.38
2019-05-18T00:34:13.496Z,8.88
2019-05-18T00:36:41.686Z,9.25
2019-05-18T00:39:09.687Z,8.88
2019-05-18T00:41:37.731Z,8.98
2019-05-18T00:44:05.763Z,9.15
2019-05-18T00:46:33.806Z,9.45
2019-05-18T00:49:01.855Z,8.90
2019-05-18T00:51:29.846Z,8.33
2019-05-18T00:53:57.876Z,9.03
2019-05-18T00:56:26.434Z,8.60
2019-05-18T00:58:54.447Z,8.50
2019-05-18T01:01:22.477Z,8.70
2019-05-18T01:03:50.528Z,9.20
2019-05-18T01:06:18.555Z,8.30
2019-05-18T01:08:46.575Z,8.20
2019-05-18T01:11:14.715Z,8.50
2019-05-18T01:13:42.736Z,8.48
2019-05-18T01:16:10.728Z,8.90
2019-05-18T01:18:38.846Z,8.25
2019-05-18T01:21:06.838Z,7.90
2019-05-18T01:23:34.868Z,10.08
2019-05-18T01:26:03.233Z,8.93
2019-05-18T01:28:31.247Z,8.20
2019-05-18T01:30:59.297Z,8.35
2019-05-18T01:33:27.322Z,7.92
2019-05-18T01:35:55.324Z,9.28
2019-05-18T01:38:23.334Z,8.30
2019-05-18T01:40:51.371Z,8.00
2019-05-18T01:43:19.781Z,8.00
2019-05-18T01:45:47.819Z,8.43
2019-05-18T01:48:15.863Z,8.73
2019-05-18T01:50:43.912Z,9.40
2019-05-18T01:53:11.950Z,10.93
2019-05-18T01:55:40.163Z,10.75
2019-05-18T01:58:08.233Z,7.87
2019-05-18T02:00:36.235Z,7.87
2019-05-18T02:03:04.251Z,7.80
2019-05-18T02:05:32.283Z,9.40
2019-05-18T02:08:00.278Z,7.92
2019-05-18T02:10:28.393Z,7.67
2019-05-18T02:12:56.470Z,7.58
2019-05-18T02:15:24.475Z,8.43
2019-05-18T02:17:52.522Z,8.38
2019-05-18T02:20:20.572Z,7.90
2019-05-18T02:22:48.584Z,7.85
2019-05-18T02:25:16.669Z,9.20
2019-05-18T02:27:44.680Z,11.20
2019-05-18T02:30:16.977Z,7.72
2019-05-18T02:32:42.443Z,8.63
2019-05-18T02:35:10.496Z,7.83
2019-05-18T02:37:38.597Z,8.98
2019-05-18T02:40:06.630Z,7.62
2019-05-18T02:42:34.620Z,7.58
2019-05-18T02:45:02.761Z,7.90
2019-05-18T02:47:30.880Z,7.50
2019-05-18T02:49:58.916Z,7.92
2019-05-18T02:52:27.071Z,7.42
2019-05-18T02:54:55.201Z,7.60
2019-05-18T02:57:23.233Z,8.30
2019-05-18T02:59:51.279Z,7.30
2019-05-18T03:02:19.539Z,7.20
2019-05-18T03:04:47.627Z,7.22
2019-05-18T03:07:15.727Z,7.92
2019-05-18T03:09:43.784Z,7.67
2019-05-18T03:12:12.091Z,7.25
2019-05-18T03:14:40.107Z,7.17
2019-05-18T03:17:08.097Z,7.00
2019-05-18T03:19:36.147Z,7.62
2019-05-18T03:22:04.172Z,7.92
2019-05-18T03:24:32.193Z,6.53
2019-05-18T03:27:00.393Z,6.90
2019-05-18T03:29:28.425Z,7.25
2019-05-18T03:31:56.462Z,9.70
2019-05-18T03:34:24.462Z,7.33
2019-05-18T03:36:53.163Z,7.62
2019-05-18T03:39:21.194Z,7.03
2019-05-18T03:41:49.209Z,7.72
2019-05-18T03:44:17.427Z,7.78
2019-05-18T03:46:45.466Z,8.80
2019-05-18T03:49:25.960Z,6.65
2019-05-18T03:51:43.244Z,7.08
2019-05-18T03:54:11.308Z,6.92
2019-05-18T03:56:39.330Z,7.12
2019-05-18T03:59:07.366Z,6.70
2019-05-18T04:01:35.357Z,6.90
2019-05-18T04:04:03.353Z,7.05
2019-05-18T04:06:31.394Z,7.05
2019-05-18T04:08:59.426Z,7.33
2019-05-18T04:11:27.477Z,7.80
2019-05-18T04:13:55.517Z,7.33
2019-05-18T04:16:23.515Z,6.90
2019-05-18T04:18:51.562Z,7.42
2019-05-18T04:21:19.946Z,7.22
2019-05-18T04:23:47.970Z,7.00
2019-05-18T04:26:16.041Z,7.05
2019-05-18T04:28:44.109Z,7.08
2019-05-18T04:31:12.146Z,9.03
2019-05-18T04:33:40.234Z,7.08
2019-05-18T04:36:08.214Z,7.28
2019-05-18T04:38:36.227Z,7.25
2019-05-18T04:41:04.385Z,8.25
2019-05-18T04:43:32.369Z,7.47
2019-05-18T04:46:19.123Z,10.80
2019-05-18T04:48:47.146Z,8.53
2019-05-18T04:51:15.265Z,7.92
2019-05-18T04:53:43.268Z,7.33
2019-05-18T04:56:11.301Z,7.67
2019-05-18T04:58:39.293Z,7.47
2019-05-18T05:01:07.310Z,7.83
2019-05-18T05:03:35.314Z,6.87
2019-05-18T05:06:03.366Z,9.10
2019-05-18T05:08:31.344Z,7.20
2019-05-18T05:10:59.352Z,7.05
2019-05-18T05:13:27.406Z,6.92
2019-05-18T05:15:55.408Z,7.25
2019-05-18T05:18:23.434Z,7.83
2019-05-18T05:20:51.506Z,7.67
2019-05-18T05:23:19.534Z,7.67
2019-05-18T05:25:47.556Z,7.60
2019-05-18T05:28:15.605Z,9.18
2019-05-18T05:30:43.590Z,8.28
2019-05-18T05:33:11.596Z,7.83
2019-05-18T05:35:39.697Z,8.10
2019-05-18T05:38:07.715Z,7.42
2019-05-18T05:40:35.711Z,7.83
2019-05-18T05:43:03.953Z,6.90
2019-05-18T05:45:31.957Z,7.95
2019-05-18T05:48:00.098Z,7.35
2019-05-18T05:50:36.224Z,8.25
2019-05-18T05:52:58.104Z,7.05
2019-05-18T05:55:26.138Z,10.98
2019-05-18T05:57:54.170Z,8.88
2019-05-18T06:00:22.227Z,8.28
2019-05-18T06:02:50.217Z,7.33
2019-05-18T06:05:18.248Z,11.65
2019-05-18T06:07:46.252Z,7.17
2019-05-18T06:10:14.286Z,8.65
2019-05-18T06:12:42.259Z,7.92
2019-05-18T06:15:10.312Z,8.73
2019-05-18T06:17:38.358Z,8.28
2019-05-18T06:20:06.353Z,8.60
2019-05-18T06:22:34.366Z,9.73
2019-05-18T06:25:03.024Z,12.07
2019-05-18T06:27:31.636Z,9.38
2019-05-18T06:29:59.619Z,10.60
2019-05-18T06:32:27.666Z,9.53
2019-05-18T06:34:55.662Z,9.38
2019-05-18T06:37:23.718Z,9.63
2019-05-18T06:39:51.765Z,10.25
2019-05-18T06:42:19.957Z,9.98
2019-05-18T06:44:47.937Z,12.13
2019-05-18T06:47:15.987Z,11.08
2019-05-18T06:49:44.004Z,13.08
2019-05-18T06:52:11.989Z,10.58
2019-05-18T06:54:40.139Z,11.03
2019-05-18T06:57:08.194Z,20.90
2019-05-18T06:59:36.186Z,22.58
2019-05-18T07:02:04.252Z,38.50
2019-05-18T07:04:32.264Z,28.73
2019-05-18T07:07:00.276Z,33.92
2019-05-18T07:09:28.332Z,22.73
2019-05-18T07:11:56.472Z,20.90
2019-05-18T07:14:26.004Z,23.50
2019-05-18T07:16:54.337Z,24.45
2019-05-18T07:19:22.386Z,19.67
2019-05-18T07:21:50.476Z,20.27
2019-05-18T07:24:18.631Z,18.98
2019-05-18T07:26:46.648Z,18.05
2019-05-18T07:29:14.700Z,18.52
2019-05-18T07:31:42.745Z,15.72
2019-05-18T07:34:10.797Z,15.88
2019-05-18T07:36:38.868Z,15.58
2019-05-18T07:39:06.951Z,16.70
2019-05-18T07:41:46.418Z,16.70
2019-05-18T07:44:04.809Z,16.65
2019-05-18T07:46:32.900Z,17.07
2019-05-18T07:49:01.117Z,16.35
2019-05-18T07:51:36.531Z,16.07
2019-05-18T07:53:58.899Z,15.90
2019-05-18T07:56:27.157Z,15.05
2019-05-18T07:59:13.920Z,11.55
2019-05-18T08:01:41.940Z,13.13
2019-05-18T08:04:09.996Z,12.10
2019-05-18T08:06:38.134Z,12.78
2019-05-18T08:09:06.281Z,11.63
2019-05-18T08:11:34.339Z,12.18
2019-05-18T08:14:02.429Z,12.47
2019-05-18T08:16:30.623Z,11.83
2019-05-18T08:18:58.690Z,11.22
2019-05-18T08:21:26.801Z,11.08
2019-05-18T08:23:54.890Z,11.60
2019-05-18T08:26:23.015Z,11.30
2019-05-18T08:28:51.098Z,13.15
2019-05-18T08:31:19.172Z,7.75
2019-05-18T08:33:48.266Z,6.87
2019-05-18T08:36:16.292Z,7.25
2019-05-18T08:38:44.339Z,8.45
2019-05-18T08:41:12.439Z,6.17
2019-05-18T08:43:40.517Z,7.58
2019-05-18T08:46:08.537Z,7.60
2019-05-18T08:48:36.676Z,8.20
2019-05-18T08:51:05.846Z,8.25
2019-05-18T08:53:34.351Z,7.90
2019-05-18T08:56:02.425Z,9.75
2019-05-18T08:58:30.481Z,11.08
2019-05-18T09:00:58.529Z,11.28
2019-05-18T09:03:26.618Z,10.23
2019-05-18T09:05:54.688Z,10.55
2019-05-18T09:08:22.697Z,11.20
2019-05-18T09:10:50.713Z,11.60
2019-05-18T09:13:18.856Z,11.08
2019-05-18T09:15:46.881Z,10.28
2019-05-18T09:18:14.892Z,9.23
2019-05-18T09:20:43.309Z,9.18
2019-05-18T09:23:11.400Z,10.80
2019-05-18T09:25:39.436Z,9.80
2019-05-18T09:28:07.517Z,9.25
2019-05-18T09:30:35.636Z,6.08
2019-05-18T09:33:03.772Z,8.50
2019-05-18T09:35:31.829Z,8.03
2019-05-18T09:38:00.178Z,6.08
2019-05-18T09:40:28.250Z,6.15
2019-05-18T09:42:56.265Z,6.55
2019-05-18T09:45:24.279Z,8.05
2019-05-18T09:47:52.353Z,6.87
2019-05-18T09:50:20.372Z,5.92
2019-05-18T09:52:48.390Z,7.15
2019-05-18T09:55:16.462Z,7.53
2019-05-18T09:57:44.511Z,5.08
2019-05-18T10:00:12.916Z,5.17
2019-05-18T10:02:41.007Z,5.75
2019-05-18T10:05:09.134Z,5.87
2019-05-18T10:07:37.249Z,7.35
2019-05-18T10:10:05.313Z,7.62
2019-05-18T10:12:33.400Z,7.85
2019-05-18T10:15:02.190Z,6.10
2019-05-18T10:17:31.358Z,5.62
2019-05-18T10:19:59.516Z,6.15
2019-05-18T10:22:27.563Z,5.35
2019-05-18T10:24:55.633Z,7.80
2019-05-18T10:27:23.891Z,6.00
2019-05-18T10:29:52.142Z,5.70
2019-05-18T10:32:23.040Z,6.42
2019-05-18T10:34:51.113Z,7.95
2019-05-18T10:37:19.126Z,5.90
2019-05-18T10:39:47.165Z,6.33
2019-05-18T10:42:15.483Z,9.05
2019-05-18T10:44:43.523Z,9.25
2019-05-18T10:47:11.631Z,12.03
2019-05-18T10:49:39.700Z,8.20
2019-05-18T10:52:07.949Z,6.87
2019-05-18T10:54:35.989Z,9.15
2019-05-18T10:57:04.007Z,9.18
2019-05-18T10:59:32.139Z,8.75
2019-05-18T11:02:01.097Z,7.00
2019-05-18T11:04:29.184Z,6.65
2019-05-18T11:06:57.176Z,5.80
2019-05-18T11:09:25.260Z,5.53
2019-05-18T11:11:53.322Z,4.97
2019-05-18T11:14:21.349Z,4.70
2019-05-18T11:16:49.445Z,5.30
2019-05-18T11:19:17.708Z,4.90
2019-05-18T11:21:45.744Z,4.95
2019-05-18T11:24:13.894Z,4.50
2019-05-18T11:26:41.988Z,4.62
2019-05-18T11:29:09.974Z,4.60
2019-05-18T11:31:38.145Z,4.60
2019-05-18T11:34:06.196Z,4.17
2019-05-18T11:36:34.818Z,4.28
2019-05-18T11:39:03.114Z,4.40
2019-05-18T11:41:31.342Z,5.10
2019-05-18T11:43:59.496Z,4.83
2019-05-18T11:46:27.513Z,5.20
2019-05-18T11:48:56.051Z,5.22
2019-05-18T11:51:24.115Z,5.10
2019-05-18T11:53:58.304Z,4.45
2019-05-18T11:56:22.027Z,4.70
2019-05-18T11:58:50.029Z,4.97
2019-05-18T12:01:18.207Z,4.53
2019-05-18T12:03:46.331Z,4.50
2019-05-18T12:06:14.700Z,4.80
2019-05-18T12:08:43.518Z,5.00
2019-05-18T12:11:11.625Z,5.30
2019-05-18T12:13:39.631Z,6.47
2019-05-18T12:16:07.660Z,6.70
2019-05-18T12:18:35.802Z,7.35
2019-05-18T12:21:03.905Z,7.90
2019-05-18T12:23:31.934Z,6.60
2019-05-18T12:25:59.992Z,6.85
2019-05-18T12:28:28.141Z,7.17
2019-05-18T12:30:56.177Z,6.62
2019-05-18T12:33:24.322Z,6.20
2019-05-18T12:35:52.328Z,7.90
2019-05-18T12:38:20.350Z,6.03
2019-05-18T12:40:48.503Z,5.62
2019-05-18T12:43:16.534Z,5.97
2019-05-18T12:45:44.591Z,5.30
2019-05-18T12:48:12.702Z,5.22
2019-05-18T12:50:40.704Z,5.53
2019-05-18T12:53:08.787Z,6.10
2019-05-18T12:55:36.855Z,6.10
2019-05-18T12:58:04.901Z,6.50
2019-05-18T13:00:32.926Z,6.90
2019-05-18T13:03:01.179Z,6.28
2019-05-18T13:05:29.277Z,6.80
2019-05-18T13:07:57.630Z,8.70
2019-05-18T13:10:25.667Z,7.62
2019-05-18T13:12:53.676Z,9.18
2019-05-18T13:15:21.715Z,7.85
2019-05-18T13:17:49.811Z,10.50
2019-05-18T13:20:17.840Z,10.20
2019-05-18T13:22:45.906Z,8.48
2019-05-18T13:25:13.995Z,10.30
2019-05-18T13:27:42.084Z,10.65
2019-05-18T13:30:10.151Z,9.63
2019-05-18T13:32:38.269Z,8.95
2019-05-18T13:35:06.337Z,8.48
2019-05-18T13:37:34.707Z,9.00
2019-05-18T13:40:02.897Z,8.85
2019-05-18T13:42:30.983Z,10.08
2019-05-18T13:44:58.996Z,9.23
2019-05-18T13:47:27.010Z,9.20
2019-05-18T13:49:55.084Z,9.85
2019-05-18T13:52:23.124Z,9.15
2019-05-18T13:55:03.089Z,9.68
2019-05-18T13:57:20.960Z,9.75
2019-05-18T13:59:49.077Z,9.78
2019-05-18T14:02:17.457Z,9.83
2019-05-18T14:04:45.508Z,9.70
2019-05-18T14:07:13.510Z,9.78
2019-05-18T14:09:41.533Z,9.00
2019-05-18T14:12:09.540Z,9.10
2019-05-18T14:14:37.686Z,9.33
2019-05-18T14:17:05.709Z,9.63
2019-05-18T14:19:33.932Z,9.70
2019-05-18T14:22:02.098Z,9.78
2019-05-18T14:24:30.128Z,9.53
2019-05-18T14:26:58.186Z,9.40
2019-05-18T14:29:26.199Z,9.83
2019-05-18T14:31:54.851Z,9.78
2019-05-18T14:34:23.246Z,9.93
2019-05-18T14:36:51.376Z,9.43
2019-05-18T14:39:19.483Z,9.18
2019-05-18T14:41:47.509Z,9.60
2019-05-18T14:44:15.579Z,10.55
2019-05-18T14:46:43.649Z,10.53
2019-05-18T14:49:11.704Z,10.72
2019-05-18T14:51:39.787Z,9.90
2019-05-18T14:54:07.878Z,10.75
2019-05-18T14:56:35.985Z,10.28
2019-05-18T14:59:04.014Z,10.25
2019-05-18T15:01:32.064Z,9.38
2019-05-18T15:04:00.161Z,11.18
2019-05-18T15:06:28.166Z,10.38
2019-05-18T15:08:56.144Z,9.70
2019-05-18T15:11:24.759Z,10.40
2019-05-18T15:13:52.834Z,10.75
2019-05-18T15:16:21.102Z,11.33
2019-05-18T15:18:50.974Z,10.53
2019-05-18T15:21:19.182Z,10.93
2019-05-18T15:23:47.256Z,10.58
2019-05-18T15:26:15.676Z,10.70
2019-05-18T15:28:43.721Z,10.88
2019-05-18T15:31:11.783Z,10.68
2019-05-18T15:33:39.804Z,11.12
2019-05-18T15:36:07.819Z,10.82
2019-05-18T15:38:35.841Z,11.10
2019-05-18T15:41:03.878Z,11.10
2019-05-18T15:43:31.938Z,10.72
2019-05-18T15:46:00.144Z,10.85
2019-05-18T15:48:28.269Z,10.90
2019-05-18T15:50:59.223Z,11.73
2019-05-18T15:53:26.225Z,11.80
2019-05-18T15:56:05.382Z,11.63
2019-05-18T15:58:23.965Z,11.33
2019-05-18T16:00:52.047Z,12.10
2019-05-18T16:03:20.042Z,11.35
2019-05-18T16:05:48.096Z,11.45
2019-05-18T16:08:16.155Z,11.90
2019-05-18T16:10:44.180Z,12.05
2019-05-18T16:13:12.236Z,12.25
2019-05-18T16:15:40.317Z,11.55
2019-05-18T16:18:08.334Z,12.10
2019-05-18T16:20:36.328Z,11.97
2019-05-18T16:23:04.727Z,12.78
2019-05-18T16:25:32.926Z,12.35
2019-05-18T16:28:00.986Z,13.10
2019-05-18T16:30:29.191Z,13.83
2019-05-18T16:32:57.185Z,12.23
2019-05-18T16:35:25.241Z,12.10
2019-05-18T16:37:53.372Z,12.30
2019-05-18T16:40:21.402Z,12.73
2019-05-18T16:42:49.459Z,12.25
2019-05-18T16:45:17.492Z,11.68
2019-05-18T16:47:45.528Z,12.45
2019-05-18T16:50:13.585Z,12.55
2019-05-18T16:52:41.827Z,12.70
2019-05-18T16:55:09.889Z,12.15
2019-05-18T16:57:38.114Z,12.82
2019-05-18T17:00:06.164Z,10.95
2019-05-18T17:02:34.205Z,11.57
2019-05-18T17:05:02.347Z,10.75
2019-05-18T17:07:30.490Z,10.95
2019-05-18T17:09:58.545Z,11.35
2019-05-18T17:12:26.572Z,11.75
2019-05-18T17:14:54.610Z,10.35
2019-05-18T17:17:22.894Z,10.58
2019-05-18T17:19:50.919Z,10.72
2019-05-18T17:22:19.259Z,10.15
2019-05-18T17:24:47.344Z,12.35
2019-05-18T17:27:15.407Z,12.25
2019-05-18T17:29:43.669Z,12.35
2019-05-18T17:32:11.791Z,15.13
2019-05-18T17:34:39.895Z,12.37
2019-05-18T17:37:07.966Z,12.00
2019-05-18T17:39:36.004Z,13.78
2019-05-18T17:42:05.179Z,11.48
2019-05-18T17:44:33.465Z,12.88
2019-05-18T17:47:01.515Z,12.37
2019-05-18T17:49:29.705Z,13.45
2019-05-18T17:51:57.859Z,13.05
2019-05-18T17:54:26.091Z,11.28
2019-05-18T17:57:07.460Z,12.07
2019-05-18T17:59:23.929Z,12.00
2019-05-18T18:01:51.975Z,13.25
2019-05-18T18:04:20.032Z,12.43
2019-05-18T18:06:48.133Z,11.95
2019-05-18T18:09:16.193Z,17.73
2019-05-18T18:11:44.543Z,15.93
2019-05-18T18:14:12.650Z,13.95
2019-05-18T18:16:40.703Z,13.90
2019-05-18T18:19:08.743Z,12.70
2019-05-18T18:21:36.783Z,14.90
2019-05-18T18:24:04.806Z,13.30
2019-05-18T18:26:32.860Z,12.33
2019-05-18T18:29:04.043Z,12.65
2019-05-18T18:31:30.625Z,13.90
2019-05-18T18:33:58.625Z,12.18
2019-05-18T18:36:26.673Z,12.95
2019-05-18T18:38:54.695Z,15.00
2019-05-18T18:41:22.776Z,13.72
2019-05-18T18:43:50.867Z,12.30
2019-05-18T18:46:18.871Z,11.95
2019-05-18T18:48:46.944Z,22.73
2019-05-18T18:51:15.018Z,11.05
2019-05-18T18:53:43.036Z,15.80
2019-05-18T18:56:11.091Z,16.97
2019-05-18T18:58:39.317Z,17.87
2019-05-18T19:01:07.351Z,17.55
2019-05-18T19:03:35.423Z,18.40
2019-05-18T19:06:03.510Z,17.65
2019-05-18T19:08:31.526Z,19.85
2019-05-18T19:10:59.535Z,19.10
2019-05-18T19:13:27.735Z,18.40
2019-05-18T19:15:55.846Z,17.82
2019-05-18T19:18:23.865Z,19.98
2019-05-18T19:20:51.929Z,19.40
2019-05-18T19:23:19.944Z,18.87
2019-05-18T19:25:48.031Z,19.37
2019-05-18T19:28:16.083Z,20.43
2019-05-18T19:30:44.122Z,19.15
2019-05-18T19:33:12.824Z,19.27
2019-05-18T19:35:40.884Z,15.65
2019-05-18T19:38:08.916Z,19.65
2019-05-18T19:40:37.017Z,18.92
2019-05-18T19:43:05.152Z,19.23
2019-05-18T19:45:33.190Z,17.52
2019-05-18T19:48:01.239Z,19.48
2019-05-18T19:50:29.286Z,20.45
2019-05-18T19:52:57.542Z,19.87
2019-05-18T19:55:25.564Z,19.42
2019-05-18T19:58:07.791Z,20.75
2019-05-18T20:00:23.972Z,21.20
2019-05-18T20:02:52.048Z,20.12
2019-05-18T20:05:20.125Z,21.30
2019-05-18T20:07:48.114Z,21.05
2019-05-18T20:10:16.182Z,21.25
2019-05-18T20:12:44.222Z,20.30
2019-05-18T20:15:12.371Z,18.95
2019-05-18T20:17:40.778Z,22.58
2019-05-18T20:20:09.671Z,21.05
2019-05-18T20:22:37.768Z,19.30
2019-05-18T20:25:05.848Z,20.90
2019-05-18T20:27:33.931Z,21.82
2019-05-18T20:30:01.994Z,22.07
2019-05-18T20:32:30.022Z,21.27
2019-05-18T20:34:58.055Z,22.22
2019-05-18T20:37:26.061Z,22.65
2019-05-18T20:39:54.087Z,22.05
2019-05-18T20:42:22.189Z,21.50
2019-05-18T20:44:50.625Z,22.87
2019-05-18T20:47:18.895Z,22.20
2019-05-18T20:49:46.925Z,21.12
2019-05-18T20:52:14.977Z,22.45
2019-05-18T20:54:43.048Z,20.27
2019-05-18T20:57:11.095Z,19.02
2019-05-18T20:59:39.166Z,18.12
2019-05-18T21:02:07.220Z,19.20
2019-05-18T21:04:35.268Z,17.77
2019-05-18T21:07:03.308Z,18.12
2019-05-18T21:09:31.345Z,17.25
2019-05-18T21:11:59.421Z,17.50
2019-05-18T21:14:27.502Z,18.17
2019-05-18T21:16:55.541Z,20.32
2019-05-18T21:19:23.587Z,18.40
2019-05-18T21:21:51.710Z,16.50
2019-05-18T21:24:19.786Z,17.07
2019-05-18T21:26:47.914Z,17.92
2019-05-18T21:29:15.952Z,17.45
2019-05-18T21:31:43.970Z,19.27
2019-05-18T21:34:12.004Z,18.35
2019-05-18T21:36:40.075Z,14.18
2019-05-18T21:39:08.890Z,34.40
2019-05-18T21:41:36.895Z,32.67
2019-05-18T21:44:04.943Z,18.87
2019-05-18T21:46:33.459Z,25.37
2019-05-18T21:49:01.738Z,23.83
2019-05-18T21:51:29.868Z,18.45
2019-05-18T21:53:57.917Z,17.90
2019-05-18T21:56:25.925Z,19.12
2019-05-18T21:58:54.053Z,19.98
2019-05-18T22:01:22.139Z,15.80
2019-05-18T22:03:50.158Z,16.60
2019-05-18T22:06:18.252Z,15.60
2019-05-18T22:08:46.284Z,14.98
2019-05-18T22:11:14.300Z,17.82
2019-05-18T22:13:42.375Z,16.48
2019-05-18T22:16:10.447Z,16.45
2019-05-18T22:18:38.497Z,14.63
2019-05-18T22:21:06.560Z,17.00
2019-05-18T22:23:34.577Z,15.90
2019-05-18T22:26:02.627Z,18.87
2019-05-18T22:28:30.716Z,16.93
2019-05-18T22:30:58.942Z,15.68
2019-05-18T22:33:26.992Z,15.13
2019-05-18T22:35:55.391Z,17.00
2019-05-18T22:38:23.507Z,16.57
2019-05-18T22:40:51.595Z,21.48
2019-05-18T22:43:19.746Z,16.85
2019-05-18T22:45:47.849Z,15.68
2019-05-18T22:48:15.905Z,16.57
2019-05-18T22:50:43.896Z,18.62
2019-05-18T22:53:11.999Z,17.80
2019-05-18T22:55:40.077Z,15.05
2019-05-18T22:58:08.097Z,16.42
2019-05-18T23:00:36.133Z,15.65
2019-05-18T23:03:04.219Z,17.12
2019-05-18T23:05:32.231Z,17.85
2019-05-18T23:08:00.364Z,15.35
2019-05-18T23:10:28.398Z,14.70
2019-05-18T23:12:56.542Z,14.73
2019-05-18T23:15:24.553Z,14.95
2019-05-18T23:17:52.627Z,15.63
2019-05-18T23:20:20.692Z,13.88
2019-05-18T23:23:07.485Z,15.13
2019-05-18T23:25:35.546Z,14.45
2019-05-18T23:28:03.886Z,13.93
2019-05-18T23:30:31.934Z,14.45
2019-05-18T23:32:59.934Z,14.07
2019-05-18T23:35:27.991Z,16.35
2019-05-18T23:37:56.166Z,15.15
2019-05-18T23:40:24.226Z,13.15
2019-05-18T23:42:52.795Z,12.70
2019-05-18T23:45:22.041Z,11.97
2019-05-18T23:47:50.210Z,15.13
2019-05-18T23:50:18.204Z,12.53
2019-05-18T23:52:46.270Z,13.00
2019-05-18T23:55:14.270Z,12.53
2019-05-18T23:57:42.345Z,14.30
